KISO/ISO METAR and TAF weather

Enter ICAO airport designator
Station Type Date Time Source
KISO METAR 2020/09/21 05:35 UTC NOAA

KISO 210535Z AUTO 36007KT 10SM CLR 13/10 A3039 RMK AO2 T01260096


Station Type Date Time Source
KISO Decoded METAR 2020/09/21 05:35 UTC NOAA

Kinston, Kinston Regional Jetport at Stallings Field, NC, United States (KISO) 35-20N 077-37W
Sep 21, 2020 - 01:35 AM EDT / 2020.09.21 0535 UTC
Wind: from the N (360 degrees) at 8 MPH (7 KT):0
Visibility: 10 mile(s):0
Sky conditions: clear
Temperature: 54.7 F (12.6 C)
Dew Point: 49.3 F (9.6 C)
Relative Humidity: 81%
Pressure (altimeter): 30.39 in. Hg (1029 hPa)
ob: KISO 210535Z AUTO 36007KT 10SM CLR 13/10 A3039 RMK AO2 T01260096
cycle: 5

Station Type Date Time Source
KISO TAF 2020/09/21 06:22 UTC NOAA

TAF KISO 210520Z 2106/2206 01008KT P6SM FEW035 FEW050
FM211400 03014G24KT P6SM SCT040
FM212300 02009KT P6SM FEW025
AMD LTD TO CLD VIS AND WIND

Example: see airport list